Time;durP1;ratioP1;P1;durP2;ratioP2;P2;SDS_P1;SDS_P2;PMS_P1;PMS_P2;Temp;Humidity;BMP_temperature;BMP_pressure;BME280_temperature;BME280_humidity;BME280_pressure;Samples;Min_cycle;Max_cycle;Signal;HPM_P1;HPM_P2
2021/09/09 05:21:39;;;;;;;29.60;21.45;;;12.80;75.80;;;;;;4827445;29;20049;-83
2021/09/09 05:27:31;;;;;;;32.58;22.52;;;13.00;75.90;;;;;;4827320;29;20051;-83
2021/09/09 05:40:25;;;;;;;26.75;18.67;;;13.30;76.30;;;;;;4827057;29;20042;-83
2021/09/09 06:00:17;;;;;;;21.98;17.88;;;14.00;77.20;;;;;;4771339;30;20523;-83
2021/09/09 06:06:06;;;;;;;22.52;18.90;;;14.30;77.00;;;;;;4770417;30;20105;-79
2021/09/09 06:11:54;;;;;;;22.30;17.35;;;14.60;77.10;;;;;;4770505;30;20034;-79
2021/09/09 06:17:42;;;;;;;24.92;18.30;;;14.90;77.20;;;;;;4781141;29;20137;-79
2021/09/09 06:23:58;;;;;;;19.40;16.08;;;15.20;77.30;;;;;;4808704;29;20041;-82
2021/09/09 06:29:48;;;;;;;17.83;14.05;;;15.90;78.40;;;;;;4808378;29;20095;-81
2021/09/09 06:35:37;;;;;;;13.32;10.10;;;16.50;77.90;;;;;;4808301;29;20103;-79
2021/09/09 06:41:31;;;;;;;14.05;9.15;;;17.00;76.90;;;;;;4808029;29;20041;-82
2021/09/09 06:47:23;;;;;;;12.85;9.30;;;17.10;75.70;;;;;;4807756;29;20080;-82
2021/09/09 06:53:19;;;;;;;14.40;8.98;;;17.10;75.20;;;;;;4807835;29;20042;-82
2021/09/09 06:59:18;;;;;;;;;;;;;;;;;;;;;
2021/09/09 07:05:33;;;;;;;11.98;8.30;;;17.40;75.20;;;;;;4769374;30;20047;-81
2021/09/09 07:11:52;;;;;;;12.80;8.40;;;17.60;75.00;;;;;;4807519;29;20044;-83
2021/09/09 07:18:18;;;;;;;13.45;8.32;;;17.80;74.90;;;;;;4807140;29;20408;-82
2021/09/09 07:24:11;;;;;;;13.80;7.47;;;18.00;74.40;;;;;;4807047;29;20050;-81
2021/09/09 07:30:20;;;;;;;11.93;7.47;;;18.30;74.50;;;;;;4807122;29;20045;-81
2021/09/09 07:36:18;;;;;;;13.20;7.53;;;18.60;74.00;;;;;;4806928;29;20184;-82
2021/09/09 07:42:21;;;;;;;11.65;7.70;;;18.90;74.00;;;;;;4806956;29;20128;-81
2021/09/09 07:48:39;;;;;;;10.65;7.13;;;19.20;73.60;;;;;;4806608;29;20111;-81
2021/09/09 07:54:45;;;;;;;12.32;6.55;;;19.60;73.00;;;;;;4806494;29;20636;-81
2021/09/09 08:00:53;;;;;;;11.13;7.05;;;19.90;72.70;;;;;;4807697;29;20091;-81
2021/09/09 08:06:57;;;;;;;11.80;6.88;;;20.20;72.40;;;;;;4808908;29;20046;-82
2021/09/09 08:12:57;;;;;;;12.65;6.97;;;20.50;71.50;;;;;;4807024;29;20038;-82
2021/09/09 08:22:15;;;;;;;11.30;7.22;;;21.00;70.90;;;;;;4809432;29;20104;-82
2021/09/09 08:28:05;;;;;;;12.45;7.20;;;21.30;70.80;;;;;;4811243;29;20038;-82
2021/09/09 08:34:00;;;;;;;11.20;7.22;;;21.70;70.30;;;;;;4814169;29;20053;-84
2021/09/09 08:40:15;;;;;;;10.60;6.95;;;22.00;69.30;;;;;;4810613;29;20131;-89
2021/09/09 08:46:15;;;;;;;10.90;7.13;;;22.40;69.40;;;;;;4810284;29;20093;-85
2021/09/09 08:53:09;;;;;;;10.48;6.72;;;22.70;68.50;;;;;;4809962;29;20053;-86
2021/09/09 09:05:09;;;;;;;10.88;6.45;;;23.20;67.10;;;;;;4754162;30;20055;-89
2021/09/09 09:11:05;;;;;;;13.00;7.07;;;23.50;66.60;;;;;;4753929;30;20039;-84
2021/09/09 09:17:02;;;;;;;11.45;6.60;;;23.90;66.40;;;;;;4753826;30;20434;-85
2021/09/09 09:23:29;;;;;;;10.93;6.22;;;24.20;65.70;;;;;;4771574;30;20085;-85
2021/09/09 09:29:26;;;;;;;10.43;6.20;;;24.60;65.10;;;;;;4788888;29;20087;-89
2021/09/09 09:35:18;;;;;;;10.05;6.35;;;25.00;64.60;;;;;;4810211;29;20080;-88
2021/09/09 09:41:07;;;;;;;9.18;5.57;;;25.40;64.20;;;;;;4809840;29;20041;-88
2021/09/09 09:47:27;;;;;;;13.10;6.15;;;25.80;63.70;;;;;;4810234;29;20038;-88
2021/09/09 10:28:48;;;;;;;9.48;5.15;;;29.30;59.40;;;;;;4619226;30;20110;-85
2021/09/09 10:35:26;;;;;;;8.30;4.45;;;30.00;58.30;;;;;;4656993;30;20045;-86
2021/09/09 10:41:33;;;;;;;8.70;4.75;;;31.30;58.50;;;;;;4692206;30;20572;-87
2021/09/09 10:51:18;;;;;;;7.90;4.28;;;33.30;55.60;;;;;;4823696;29;20065;-88
2021/09/09 11:37:11;;;;;;;7.35;4.10;;;40.00;41.60;;;;;;4807238;29;20065;-82
2021/09/09 14:33:28;;;;;;;;;;;;;;;;;;;;;
2021/09/09 14:57:00;;;;;;;;;;;;;;;;;;;;;
2021/09/09 16:05:50;;;;;;;9.10;4.60;;;35.70;30.60;;;;;;4803652;29;20116;-87
2021/09/09 16:11:54;;;;;;;7.85;4.40;;;34.30;32.10;;;;;;4789957;30;20413;-85
2021/09/09 16:17:44;;;;;;;11.23;5.38;;;33.30;33.20;;;;;;4806706;29;20047;-85
2021/09/09 16:23:58;;;;;;;10.45;5.72;;;32.60;34.20;;;;;;4806739;29;20026;-84
2021/09/09 16:30:14;;;;;;;7.88;4.72;;;32.10;35.10;;;;;;4811281;29;20030;-85
2021/09/09 16:36:07;;;;;;;7.85;4.50;;;32.00;35.80;;;;;;4809169;29;20042;-85
2021/09/09 16:42:08;;;;;;;;;;;;;;;;;;;;;
2021/09/09 16:48:00;;;;;;;10.02;5.20;;;30.90;37.10;;;;;;4818967;29;20055;-83
2021/09/09 16:53:49;;;;;;;8.63;4.30;;;30.30;37.90;;;;;;4814979;29;20041;-85
2021/09/09 16:59:46;;;;;;;9.23;4.57;;;29.90;38.60;;;;;;4810856;29;20053;-84
2021/09/09 17:05:35;;;;;;;8.35;4.20;;;29.50;39.10;;;;;;4810778;29;20085;-85
2021/09/09 17:11:26;;;;;;;9.98;5.45;;;29.20;39.90;;;;;;4827961;29;20490;-83
2021/09/09 17:17:18;;;;;;;10.23;5.03;;;28.90;40.40;;;;;;4827730;29;20029;-83
2021/09/09 17:23:07;;;;;;;12.52;5.60;;;28.70;40.70;;;;;;4827647;29;20061;-84
2021/09/09 17:28:56;;;;;;;9.02;4.78;;;28.40;41.10;;;;;;4827702;29;20041;-86
2021/09/09 17:34:45;;;;;;;9.60;5.65;;;28.10;41.80;;;;;;4827514;29;20030;-82
2021/09/09 17:40:43;;;;;;;10.27;5.53;;;27.90;42.20;;;;;;4827711;29;20041;-82
2021/09/09 17:46:33;;;;;;;10.73;5.93;;;27.50;43.00;;;;;;4831032;29;20057;-86
2021/09/09 17:52:35;;;;;;;14.45;5.72;;;27.20;43.80;;;;;;4833821;29;20045;-88
2021/09/09 17:58:25;;;;;;;11.27;6.63;;;26.90;44.50;;;;;;4842439;29;20037;-88
2021/09/09 18:04:16;;;;;;;11.15;5.80;;;26.70;45.20;;;;;;4842452;29;20053;-88
2021/09/09 18:13:56;;;;;;;10.32;6.15;;;26.40;45.70;;;;;;4836411;29;20128;-88
2021/09/09 18:26:54;;;;;;;9.38;4.82;;;26.00;46.70;;;;;;4743925;30;20063;-84
2021/09/09 18:36:06;;;;;;;9.90;5.22;;;25.60;47.50;;;;;;4835636;29;20046;-87
2021/09/09 18:41:55;;;;;;;9.93;5.30;;;25.40;48.40;;;;;;4835949;29;20033;-84
2021/09/09 18:47:44;;;;;;;8.85;5.18;;;25.20;49.40;;;;;;4835016;29;20440;-87
2021/09/09 18:53:36;;;;;;;10.25;5.00;;;24.90;50.10;;;;;;4842964;29;20124;-85
2021/09/09 18:59:25;;;;;;;9.63;4.65;;;24.70;50.80;;;;;;4843653;29;20059;-84
2021/09/09 19:16:05;;;;;;;9.85;4.95;;;24.20;52.40;;;;;;4744589;30;20039;-88
2021/09/09 19:21:57;;;;;;;8.50;4.60;;;24.00;53.00;;;;;;4748983;30;20067;-91
2021/09/09 21:34:37;;;;;;;12.32;8.52;;;22.00;60.20;;;;;;506590;27;20366;-86
2021/09/09 22:18:17;;;;;;;14.48;10.25;;;21.20;62.00;;;;;;4711391;30;20082;-95
2021/09/09 22:38:22;;;;;;;13.88;10.35;;;20.60;63.50;;;;;;4760901;29;20063;-95
2021/09/09 22:51:03;;;;;;;14.45;10.52;;;20.40;64.20;;;;;;4819841;29;20034;-95
2021/09/09 23:07:13;;;;;;;15.25;11.38;;;20.20;65.00;;;;;;4812679;29;20420;-95
2021/09/09 23:13:16;;;;;;;17.23;11.90;;;20.10;65.60;;;;;;4825177;29;20058;-95
2021/09/09 23:29:00;;;;;;;16.88;12.70;;;19.90;66.10;;;;;;4831637;29;20056;-95
2021/09/09 23:35:13;;;;;;;16.15;12.40;;;19.70;66.40;;;;;;4810629;29;20045;-95
2021/09/09 23:48:03;;;;;;;14.52;12.30;;;19.50;67.20;;;;;;4765964;29;20049;-96
2021/09/09 23:53:58;;;;;;;16.60;11.90;;;19.40;67.40;;;;;;4810530;29;20046;-96
2021/09/09 23:59:55;;;;;;;14.10;11.93;;;19.30;67.70;;;;;;4822509;29;20097;-93
